KAWM/AWM METAR and TAF weather

Enter ICAO airport designator
Station Type Date Time Source
KAWM METAR 2020/11/28 18:53 UTC NOAA

KAWM 281853Z AUTO 03006KT 10SM CLR 13/M03 A3018 RMK AO2 SLP221 T01281028


Station Type Date Time Source
KAWM Decoded METAR 2020/11/28 18:53 UTC NOAA

WEST MEMPHIS MUNICIPAL AIRPORT, AR, United States (KAWM) 35-08N 090-14W
Nov 28, 2020 - 01:53 PM EST / 2020.11.28 1853 UTC
Wind: from the NNE (030 degrees) at 7 MPH (6 KT):0
Visibility: 10 mile(s):0
Sky conditions: clear
Temperature: 55.0 F (12.8 C)
Dew Point: 27.0 F (-2.8 C)
Relative Humidity: 33%
Pressure (altimeter): 30.18 in. Hg (1022 hPa)
ob: KAWM 281853Z AUTO 03006KT 10SM CLR 13/M03 A3018 RMK AO2 SLP221 T01281028
cycle: 19

Station Type Date Time Source
KAWM TAF UTC NOAA

Error!

Example: see airport list